createdAt,value
2019-03-24T00:08:06.794Z,23.33
2019-03-24T00:28:11.610Z,18.55
2019-03-24T00:38:14.839Z,23.10
2019-03-24T00:48:17.958Z,23.18
2019-03-24T00:58:20.542Z,18.67
2019-03-24T01:08:23.010Z,23.10
2019-03-24T01:18:26.266Z,20.13
2019-03-24T01:28:29.050Z,30.55
2019-03-24T01:38:31.634Z,28.35
2019-03-24T01:48:34.520Z,24.37
2019-03-24T01:58:37.131Z,25.82
2019-03-24T02:08:39.818Z,28.30
2019-03-24T02:18:42.819Z,35.03
2019-03-24T02:28:45.498Z,25.00
2019-03-24T02:38:48.184Z,35.00
2019-03-24T02:48:51.069Z,46.00
2019-03-24T02:58:54.610Z,38.20
2019-03-24T03:08:57.498Z,52.98
2019-03-24T03:19:00.064Z,37.67
2019-03-24T03:29:02.610Z,32.20
2019-03-24T03:39:07.493Z,46.73
2019-03-24T03:49:09.993Z,42.15
2019-03-24T03:59:12.496Z,41.00
2019-03-24T04:09:15.016Z,41.13
2019-03-24T04:19:17.678Z,36.43
2019-03-24T04:29:20.383Z,40.23
2019-03-24T04:39:23.027Z,33.85
2019-03-24T04:49:25.613Z,35.27
2019-03-24T04:59:28.386Z,34.23
2019-03-24T05:09:31.195Z,36.15
2019-03-24T05:19:33.927Z,32.17
2019-03-24T05:29:36.447Z,31.93
2019-03-24T05:39:39.346Z,36.10
2019-03-24T05:49:41.889Z,29.95
2019-03-24T05:59:45.272Z,33.80
2019-03-24T06:09:47.832Z,29.92
2019-03-24T06:19:50.790Z,22.40
2019-03-24T06:29:53.360Z,24.65
2019-03-24T06:39:56.124Z,31.37
2019-03-24T06:49:58.943Z,22.85
2019-03-24T07:00:01.467Z,19.67
2019-03-24T07:10:04.800Z,29.17
2019-03-24T07:20:07.975Z,20.72
2019-03-24T07:30:11.483Z,23.98
2019-03-24T07:40:14.650Z,22.67
2019-03-24T07:50:17.182Z,24.87
2019-03-24T08:00:32.583Z,25.13
2019-03-24T08:10:35.070Z,28.73
2019-03-24T08:20:37.908Z,28.50
2019-03-24T08:30:40.950Z,27.13
2019-03-24T08:50:45.638Z,31.87
2019-03-24T09:10:50.807Z,28.10
2019-03-24T09:20:53.567Z,24.65
2019-03-24T09:30:56.531Z,21.27
2019-03-24T09:51:01.122Z,30.43
2019-03-24T10:01:04.534Z,33.05
2019-03-24T10:11:07.044Z,37.13
2019-03-24T10:21:09.623Z,31.67
2019-03-24T10:31:12.253Z,38.47
2019-03-24T10:41:14.781Z,35.58
2019-03-24T10:51:17.590Z,37.13
2019-03-24T11:01:20.146Z,33.50
2019-03-24T11:11:22.927Z,28.83
2019-03-24T11:21:25.706Z,20.90
2019-03-24T11:31:30.700Z,34.88
2019-03-24T11:41:33.438Z,17.65
2019-03-24T11:51:36.174Z,16.62
2019-03-24T12:01:38.971Z,27.15
2019-03-24T12:21:43.435Z,14.95
2019-03-24T12:31:45.959Z,11.22
2019-03-24T12:51:50.330Z,12.20
2019-03-24T13:01:52.972Z,7.95
2019-03-24T13:11:55.702Z,10.80
2019-03-24T13:21:58.207Z,8.25
2019-03-24T13:32:00.746Z,6.72
2019-03-24T13:42:03.607Z,5.10
2019-03-24T13:52:08.018Z,8.00
2019-03-24T14:02:10.495Z,6.53
2019-03-24T14:12:15.224Z,10.45
2019-03-24T14:22:17.751Z,7.42
2019-03-24T14:32:20.229Z,4.60
2019-03-24T14:42:22.825Z,9.50
2019-03-24T14:52:26.562Z,4.62
2019-03-24T15:02:29.384Z,5.92
2019-03-24T15:12:31.910Z,7.37
2019-03-24T15:22:34.684Z,4.92
2019-03-24T15:32:37.438Z,8.78
2019-03-24T15:42:39.990Z,6.12
2019-03-24T15:52:42.510Z,7.35
2019-03-24T16:02:45.023Z,11.73
2019-03-24T16:12:47.545Z,8.30
2019-03-24T16:22:50.500Z,13.33
2019-03-24T16:42:55.445Z,9.60
2019-03-24T17:03:00.041Z,13.05
2019-03-24T17:13:02.749Z,15.60
2019-03-24T17:23:05.571Z,44.60
2019-03-24T17:33:08.102Z,21.05
2019-03-24T17:43:10.634Z,23.80
2019-03-24T17:53:13.511Z,14.70
2019-03-24T18:03:16.142Z,14.35
2019-03-24T18:13:18.683Z,14.10
2019-03-24T18:23:21.541Z,9.27
2019-03-24T18:33:24.151Z,12.80
2019-03-24T18:43:26.657Z,11.90
2019-03-24T18:53:29.493Z,11.37
2019-03-24T19:03:32.227Z,10.75
2019-03-24T19:13:35.733Z,12.07
2019-03-24T19:23:38.335Z,9.53
2019-03-24T19:33:41.436Z,13.33
2019-03-24T19:53:45.995Z,14.63
2019-03-24T20:03:48.824Z,10.38
2019-03-24T20:13:51.485Z,9.28
2019-03-24T20:23:54.185Z,9.73
2019-03-24T20:33:56.888Z,14.87
2019-03-24T20:43:59.671Z,10.43
2019-03-24T20:54:02.778Z,15.30
2019-03-24T21:04:05.295Z,14.20
2019-03-24T21:14:08.389Z,13.47
2019-03-24T21:24:11.213Z,19.07
2019-03-24T21:34:13.949Z,21.27
2019-03-24T21:44:16.724Z,17.43
2019-03-24T21:54:19.504Z,15.13
2019-03-24T22:04:22.563Z,19.77
2019-03-24T22:14:25.356Z,25.75
2019-03-24T22:24:27.876Z,23.27
2019-03-24T22:34:49.562Z,19.83
2019-03-24T22:44:52.023Z,25.92
2019-03-24T22:54:54.877Z,20.67
2019-03-24T23:04:57.405Z,16.73
2019-03-24T23:14:59.960Z,13.50
2019-03-24T23:25:02.855Z,12.97
2019-03-24T23:35:06.045Z,19.20
2019-03-24T23:55:10.378Z,18.27
